Schneifelwetter: Wetterstation Hallschlag, 537 m . NN
Wetterdaten: Sonntag, 07.02.2010
Datum Zeit Temp. A. Feuchte A. Luftdruck Regen Wind Richtung Richtung Sonnenschein Helligkeit T Regen Taupunkt Windchill
07.02.2010 00:00 0,6 C 99 % 1015 hPa 0,0 l/m 0,0 km/h (0 Bft) NW 310 0 min 0 lux 0,00 min 0,5 C 0,6 C
07.02.2010 00:15 0,4 C 99 % 1015 hPa 0,0 l/m 0,0 km/h (0 Bft) NW 310 0 min 0 lux 0,00 min 0,3 C 0,4 C
07.02.2010 00:30 0,3 C 99 % 1015 hPa 0,0 l/m 0,0 km/h (0 Bft) NW 310 0 min 0 lux 0,00 min 0,2 C 0,3 C
07.02.2010 00:45 0,2 C 99 % 1015 hPa 0,0 l/m 0,8 km/h (0 Bft) N 360 0 min 0 lux 0,00 min 0,1 C 0,2 C
07.02.2010 01:00 0,2 C 99 % 1015 hPa 0,0 l/m 0,0 km/h (0 Bft) NW 310 0 min 0 lux 0,00 min 0,1 C 0,2 C
07.02.2010 01:15 0,2 C 99 % 1015 hPa 0,0 l/m 0,0 km/h (0 Bft) NW 305 0 min 0 lux 0,00 min 0,1 C 0,2 C
07.02.2010 01:30 0,2 C 99 % 1015 hPa 0,0 l/m 0,0 km/h (0 Bft) NW 305 0 min 0 lux 0,00 min 0,1 C 0,2 C
07.02.2010 01:45 0,2 C 99 % 1015 hPa 0,0 l/m 0,0 km/h (0 Bft) NW 305 0 min 0 lux 0,00 min 0,1 C 0,2 C
07.02.2010 02:00 0,2 C 99 % 1015 hPa 0,0 l/m 0,0 km/h (0 Bft) NW 305 0 min 0 lux 0,00 min 0,1 C 0,2 C
07.02.2010 02:15 0,2 C 99 % 1015 hPa 0,0 l/m 0,0 km/h (0 Bft) NW 305 0 min 0 lux 0,00 min 0,1 C 0,2 C
07.02.2010 02:30 0,3 C 99 % 1015 hPa 0,0 l/m 0,0 km/h (0 Bft) NW 305 0 min 0 lux 0,00 min 0,2 C 0,3 C
07.02.2010 02:45 0,3 C 99 % 1015 hPa 0,0 l/m 0,0 km/h (0 Bft) NW 305 0 min 0 lux 0,00 min 0,2 C 0,3 C
07.02.2010 03:00 0,3 C 99 % 1015 hPa 0,0 l/m 0,0 km/h (0 Bft) NW 305 0 min 0 lux 0,00 min 0,2 C 0,3 C
07.02.2010 03:15 0,3 C 99 % 1015 hPa 0,0 l/m 0,0 km/h (0 Bft) NW 305 0 min 0 lux 0,00 min 0,2 C 0,3 C
07.02.2010 03:30 0,3 C 99 % 1015 hPa 0,0 l/m 0,0 km/h (0 Bft) NW 310 0 min 0 lux 0,00 min 0,2 C 0,3 C
07.02.2010 03:45 0,3 C 99 % 1016 hPa 0,0 l/m 0,0 km/h (0 Bft) NW 310 0 min 0 lux 0,00 min 0,2 C 0,3 C
07.02.2010 04:00 0,3 C 99 % 1015 hPa 0,0 l/m 0,0 km/h (0 Bft) NW 310 0 min 0 lux 0,00 min 0,2 C 0,3 C
07.02.2010 04:15 0,3 C 99 % 1016 hPa 0,0 l/m 0,0 km/h (0 Bft) NW 310 0 min 0 lux 0,00 min 0,2 C 0,3 C
07.02.2010 04:30 0,3 C 99 % 1016 hPa 0,0 l/m 0,0 km/h (0 Bft) NW 310 0 min 0 lux 0,00 min 0,2 C 0,3 C
07.02.2010 04:45 0,3 C 99 % 1016 hPa 0,0 l/m 0,0 km/h (0 Bft) NW 305 0 min 0 lux 0,00 min 0,2 C 0,3 C
07.02.2010 05:00 0,3 C 99 % 1016 hPa 0,0 l/m 0,0 km/h (0 Bft) NW 305 0 min 0 lux 0,00 min 0,2 C 0,3 C
07.02.2010 05:15 0,3 C 99 % 1016 hPa 0,0 l/m 0,0 km/h (0 Bft) NW 305 0 min 0 lux 0,00 min 0,2 C 0,3 C
07.02.2010 05:30 0,3 C 99 % 1016 hPa 0,0 l/m 0,0 km/h (0 Bft) NW 305 0 min 0 lux 0,00 min 0,2 C 0,3 C
07.02.2010 05:45 0,3 C 99 % 1016 hPa 0,0 l/m 0,0 km/h (0 Bft) NW 305 0 min 0 lux 0,00 min 0,2 C 0,3 C
07.02.2010 06:00 0,3 C 99 % 1016 hPa 0,0 l/m 0,0 km/h (0 Bft) NW 305 0 min 0 lux 0,00 min 0,2 C 0,3 C
07.02.2010 06:15 0,3 C 99 % 1016 hPa 0,0 l/m 0,0 km/h (0 Bft) NW 305 0 min 0 lux 0,00 min 0,2 C 0,3 C
07.02.2010 06:30 0,4 C 99 % 1016 hPa 0,0 l/m 0,0 km/h (0 Bft) NW 305 0 min 0 lux 0,00 min 0,3 C 0,4 C
07.02.2010 06:45 0,4 C 99 % 1016 hPa 0,0 l/m 0,0 km/h (0 Bft) NW 305 0 min 0 lux 0,00 min 0,3 C 0,4 C
07.02.2010 07:00 0,3 C 99 % 1016 hPa 0,0 l/m 5,6 km/h (1 Bft) N22.5 350 0 min 0 lux 0,00 min 0,2 C 0,3 C
07.02.2010 07:15 0,2 C 99 % 1016 hPa 0,0 l/m 5,3 km/h (1 Bft) N 355 0 min 0 lux 0,00 min 0,1 C 0,2 C
07.02.2010 07:30 0,1 C 99 % 1016 hPa 0,0 l/m 7,5 km/h (2 Bft) N 10 0 min 0 lux 0,00 min -0,0 C -1,0 C
07.02.2010 07:45 0,0 C 99 % 1016 hPa 0,0 l/m 0,0 km/h (0 Bft) N-NO 20 0 min 39 lux 0,00 min -0,1 C 0,0 C
07.02.2010 08:00 0,0 C 99 % 1016 hPa 0,0 l/m 4,2 km/h (1 Bft) N-NO 20 0 min 191 lux 0,00 min -0,1 C 0,0 C
07.02.2010 08:15 -0,2 C 99 % 1016 hPa 0,0 l/m 4,6 km/h (1 Bft) N-NO 20 0 min 388 lux 0,00 min -0,3 C -0,2 C
07.02.2010 08:30 -0,2 C 99 % 1017 hPa 0,0 l/m 9,6 km/h (2 Bft) NO 55 0 min 826 lux 0,00 min -0,3 C -3,3 C
07.02.2010 08:45 -0,3 C 99 % 1017 hPa 0,0 l/m 8,9 km/h (2 Bft) O-NO22.5 70 0 min 1,30 klux 0,00 min -0,4 C -2,8 C
07.02.2010 09:00 -0,4 C 99 % 1017 hPa 0,0 l/m 7,2 km/h (2 Bft) O-NO22.5 60 0 min 2,11 klux 0,00 min -0,5 C -1,2 C
07.02.2010 09:15 -0,4 C 99 % 1017 hPa 0,0 l/m 5,4 km/h (1 Bft) NO 55 0 min 2,41 klux 0,00 min -0,5 C -0,4 C
07.02.2010 09:30 -0,3 C 99 % 1017 hPa 0,0 l/m 5,3 km/h (1 Bft) NO 50 0 min 3,83 klux 0,00 min -0,4 C -0,3 C
07.02.2010 09:45 -0,2 C 99 % 1017 hPa 0,0 l/m 7,1 km/h (2 Bft) NO22.5 50 0 min 4,65 klux 0,00 min -0,3 C -0,9 C
07.02.2010 10:00 0,0 C 99 % 1017 hPa 0,0 l/m 5,2 km/h (1 Bft) N22.5 10 0 min 5,97 klux 0,00 min -0,1 C 0,0 C
07.02.2010 10:15 0,0 C 99 % 1017 hPa 0,0 l/m 5,8 km/h (2 Bft) N 5 0 min 8,46 klux 0,00 min -0,1 C 0,0 C
07.02.2010 10:30 0,1 C 99 % 1017 hPa 0,0 l/m 5,3 km/h (1 Bft) N 360 0 min 9,5 klux 0,00 min -0,0 C 0,1 C
07.02.2010 10:45 0,3 C 99 % 1017 hPa 0,0 l/m 5,9 km/h (2 Bft) N22.5 360 0 min 11,4 klux 0,00 min 0,2 C 0,3 C
07.02.2010 11:00 0,5 C 99 % 1017 hPa 0,0 l/m 6,8 km/h (2 Bft) N 360 0 min 14,6 klux 0,00 min 0,4 C 0,1 C
07.02.2010 11:15 0,7 C 99 % 1017 hPa 0,0 l/m 7,2 km/h (2 Bft) N 360 0 min 15,0 klux 0,00 min 0,6 C -0,1 C
07.02.2010 11:30 0,8 C 99 % 1017 hPa 0,0 l/m 8,8 km/h (2 Bft) N 5 0 min 15,7 klux 0,00 min 0,7 C -1,5 C
07.02.2010 11:45 1,0 C 99 % 1017 hPa 0,0 l/m 7,4 km/h (2 Bft) N 5 0 min 15,7 klux 0,00 min 0,9 C -0,0 C
07.02.2010 12:00 0,9 C 99 % 1017 hPa 0,0 l/m 9,1 km/h (2 Bft) N 10 0 min 15,1 klux 0,00 min 0,8 C -1,7 C
07.02.2010 12:16 1,0 C 99 % 1017 hPa 0,0 l/m 6,7 km/h (2 Bft) N-NO 30 0 min 13,2 klux 0,00 min 0,9 C 0,7 C
07.02.2010 12:30 1,0 C 99 % 1017 hPa 0,0 l/m 11,1 km/h (2 Bft) NO22.5 35 0 min 11,0 klux 0,00 min 0,9 C -3,2 C
07.02.2010 12:45 0,7 C 99 % 1017 hPa 0,0 l/m 11,7 km/h (2 Bft) N-NO22.5 25 0 min 12,1 klux 0,00 min 0,6 C -4,0 C
07.02.2010 13:00 0,5 C 99 % 1017 hPa 0,0 l/m 11,1 km/h (2 Bft) N-NO22.5 25 0 min 11,6 klux 0,00 min 0,4 C -3,8 C
07.02.2010 13:15 0,5 C 99 % 1017 hPa 0,0 l/m 9,6 km/h (2 Bft) N-NO 25 0 min 10,8 klux 0,00 min 0,4 C -2,6 C
07.02.2010 13:30 0,4 C 99 % 1017 hPa 0,0 l/m 9,9 km/h (2 Bft) N-NO22.5 15 0 min 11,4 klux 0,00 min 0,3 C -2,9 C
07.02.2010 13:45 0,3 C 99 % 1016 hPa 0,0 l/m 10,2 km/h (2 Bft) N-NO22.5 25 0 min 11,4 klux 0,00 min 0,2 C -3,3 C
07.02.2010 14:00 0,3 C 99 % 1016 hPa 0,0 l/m 8,1 km/h (2 Bft) N-NO22.5 15 0 min 10,0 klux 0,00 min 0,2 C -1,4 C
07.02.2010 14:15 0,5 C 99 % 1016 hPa 0,0 l/m 5,7 km/h (1 Bft) N-NO 20 0 min 10,1 klux 0,00 min 0,4 C 0,5 C
07.02.2010 14:30 0,7 C 99 % 1016 hPa 0,0 l/m 6,5 km/h (2 Bft) NO 50 0 min 10,2 klux 0,00 min 0,6 C 0,6 C
07.02.2010 14:45 0,7 C 99 % 1016 hPa 0,0 l/m 7,2 km/h (2 Bft) NO 55 0 min 9,9 klux 0,00 min 0,6 C -0,1 C
07.02.2010 15:00 0,8 C 99 % 1016 hPa 0,0 l/m 4,7 km/h (1 Bft) O-NO 70 0 min 8,82 klux 0,00 min 0,7 C 0,8 C
07.02.2010 15:15 0,9 C 99 % 1016 hPa 0,0 l/m 3,6 km/h (1 Bft) O-NO 70 0 min 8,03 klux 0,00 min 0,8 C 0,9 C
07.02.2010 15:30 0,9 C 99 % 1016 hPa 0,0 l/m 5,4 km/h (1 Bft) O-NO 70 0 min 8,53 klux 0,00 min 0,8 C 0,9 C
07.02.2010 15:45 0,9 C 99 % 1016 hPa 0,0 l/m 6,2 km/h (2 Bft) O-NO 70 0 min 7,97 klux 0,00 min 0,8 C 0,9 C
07.02.2010 16:00 0,7 C 99 % 1016 hPa 0,0 l/m 7,6 km/h (2 Bft) O-NO 60 0 min 7,64 klux 0,00 min 0,6 C -0,5 C
07.02.2010 16:15 0,5 C 99 % 1016 hPa 0,0 l/m 7,8 km/h (2 Bft) NO 50 0 min 4,85 klux 0,00 min 0,4 C -0,9 C
07.02.2010 16:30 0,3 C 99 % 1015 hPa 0,0 l/m 7,8 km/h (2 Bft) O-NO 60 0 min 4,65 klux 0,00 min 0,2 C -1,1 C
07.02.2010 16:45 0,3 C 99 % 1015 hPa 0,0 l/m 6,1 km/h (2 Bft) NO 45 0 min 3,31 klux 0,00 min 0,2 C 0,3 C
07.02.2010 17:00 0,2 C 99 % 1015 hPa 0,0 l/m 4,0 km/h (1 Bft) NO 45 0 min 2,29 klux 0,00 min 0,1 C 0,2 C
07.02.2010 17:16 0,1 C 99 % 1015 hPa 0,0 l/m 6,4 km/h (2 Bft) NO 45 0 min 1,59 klux 0,00 min -0,0 C 0,1 C
07.02.2010 17:30 0,0 C 99 % 1015 hPa 0,0 l/m 7,9 km/h (2 Bft) NO 50 0 min 955 lux 0,00 min -0,1 C -1,5 C
07.02.2010 17:45 -0,2 C 99 % 1015 hPa 0,0 l/m 9,6 km/h (2 Bft) O-NO22.5 60 0 min 362 lux 0,00 min -0,3 C -3,3 C
07.02.2010 18:00 -0,3 C 99 % 1015 hPa 0,0 l/m 10,6 km/h (2 Bft) NO 55 0 min 94 lux 0,00 min -0,4 C -4,3 C
07.02.2010 18:15 -0,4 C 99 % 1015 hPa 0,0 l/m 8,5 km/h (2 Bft) NO 55 0 min 16 lux 0,00 min -0,5 C -2,6 C
07.02.2010 18:30 -0,4 C 99 % 1015 hPa 0,0 l/m 8,5 km/h (2 Bft) O-NO 60 0 min 0 lux 0,00 min -0,5 C -2,6 C
07.02.2010 18:45 -0,4 C 99 % 1015 hPa 0,0 l/m 10,2 km/h (2 Bft) O-NO 60 0 min 0 lux 0,00 min -0,5 C -4,1 C
07.02.2010 19:00 -0,4 C 99 % 1015 hPa 0,0 l/m 10,7 km/h (2 Bft) NO22.5 40 0 min 0 lux 0,00 min -0,5 C -4,5 C
07.02.2010 19:15 -0,4 C 99 % 1015 hPa 0,0 l/m 10,3 km/h (2 Bft) O-NO22.5 70 0 min 0 lux 0,00 min -0,5 C -4,1 C
07.02.2010 19:30 -0,5 C 99 % 1015 hPa 0,0 l/m 11,9 km/h (2 Bft) O22.5 85 0 min 0 lux 0,00 min -0,6 C -5,5 C
07.02.2010 19:45 -0,6 C 99 % 1015 hPa 0,0 l/m 14,3 km/h (3 Bft) O-NO22.5 75 0 min 0 lux 0,00 min -0,7 C -7,3 C
07.02.2010 20:00 -0,7 C 99 % 1015 hPa 0,0 l/m 14,0 km/h (3 Bft) O-NO22.5 75 0 min 0 lux 0,00 min -0,8 C -7,2 C
07.02.2010 20:15 -0,7 C 99 % 1015 hPa 0,0 l/m 13,3 km/h (3 Bft) NO45 55 0 min 0 lux 0,00 min -0,8 C -6,7 C
07.02.2010 20:30 -0,8 C 99 % 1015 hPa 0,0 l/m 14,7 km/h (3 Bft) O-NO22.5 65 0 min 0 lux 0,00 min -0,9 C -7,8 C
07.02.2010 20:45 -0,9 C 99 % 1014 hPa 0,0 l/m 16,0 km/h (3 Bft) O-NO45 65 0 min 0 lux 0,00 min -1,0 C -8,7 C
07.02.2010 21:00 -0,9 C 99 % 1014 hPa 0,0 l/m 11,8 km/h (2 Bft) O-NO22.5 60 0 min 0 lux 0,00 min -1,0 C -5,9 C
07.02.2010 21:15 -0,9 C 99 % 1014 hPa 0,0 l/m 10,1 km/h (2 Bft) O 95 0 min 0 lux 0,00 min -1,0 C -4,5 C
07.02.2010 21:30 -1,0 C 99 % 1014 hPa 0,0 l/m 15,3 km/h (3 Bft) O-NO45 75 0 min 0 lux 0,00 min -1,1 C -8,4 C
07.02.2010 21:45 -1,0 C 99 % 1014 hPa 0,0 l/m 14,0 km/h (3 Bft) O-NO22.5 70 0 min 0 lux 0,00 min -1,1 C -7,6 C
07.02.2010 22:00 -1,0 C 99 % 1014 hPa 0,0 l/m 12,0 km/h (2 Bft) O-NO22.5 60 0 min 0 lux 0,00 min -1,1 C -6,2 C
07.02.2010 22:15 -1,0 C 99 % 1014 hPa 0,0 l/m 16,6 km/h (3 Bft) O-NO22.5 60 0 min 0 lux 0,00 min -1,1 C -9,1 C
07.02.2010 22:30 -1,1 C 99 % 1014 hPa 0,0 l/m 10,6 km/h (2 Bft) O-SO45 110 0 min 0 lux 0,00 min -1,2 C -5,2 C
07.02.2010 22:45 -1,1 C 99 % 1013 hPa 0,0 l/m 13,0 km/h (3 Bft) O-NO22.5 60 0 min 0 lux 0,00 min -1,2 C -7,0 C
07.02.2010 23:00 -1,1 C 99 % 1013 hPa 0,0 l/m 8,1 km/h (2 Bft) SO 125 0 min 0 lux 0,00 min -1,2 C -2,9 C
07.02.2010 23:15 -1,1 C 99 % 1013 hPa 0,0 l/m 8,1 km/h (2 Bft) O-NO22.5 60 0 min 0 lux 0,00 min -1,2 C -2,9 C
07.02.2010 23:30 -1,1 C 99 % 1013 hPa 0,0 l/m 7,6 km/h (2 Bft) NO 35 0 min 0 lux 0,00 min -1,2 C -2,4 C
07.02.2010 23:45 -1,1 C 99 % 1013 hPa 0,0 l/m 3,0 km/h (1 Bft) SO 140 0 min 0 lux 0,00 min -1,2 C -1,1 C
_ Min-Zeit 22:30 00:00 22:45 - 00:00 - - - - - 22:30 22:15
Minimum _ -1,1 C 99 % 1013 hPa - 0,0 km/h (0 Bft) - - - - - -1,2 C -9,1 C
_ Max-Zeit 11:45 00:00 08:30 00:00 22:15 - - 00:00 11:30 00:00 11:45 15:15
Maximum _ 1,0 C 99 % 1017 hPa 0,0 l/m 16,6 km/h
O-NO (3 Bft)
- - 0 min 15,7 klux 0,00 min 0,9 C 0,9 C
Durchschnitt _ 0,0 C 99 % 1016 hPa #0,0 l/m 6,1 km/h (2 Bft) O-NO - #0 min. 3,21 klux #0 min. -0,1 C -1,6 C